Time;durP1;ratioP1;P1;durP2;ratioP2;P2;SDS_P1;SDS_P2;PMS_P1;PMS_P2;Temp;Humidity;BMP_temperature;BMP_pressure;BME280_temperature;BME280_humidity;BME280_pressure;Samples;Min_cycle;Max_cycle;Signal;HPM_P1;HPM_P2
2023/01/21 00:02:10;;;;;;;0.00;0.00;;;0.50;99.90;;;;;;5026268;28;20274;-71
2023/01/21 00:04:39;;;;;;;0.00;0.00;;;0.50;99.90;;;;;;5030208;28;20049;-71
2023/01/21 00:07:06;;;;;;;0.00;0.00;;;0.50;99.90;;;;;;5026552;28;20037;-72
2023/01/21 00:09:32;;;;;;;;;;;0.60;99.90;;;;;;5030998;28;20033;-72
2023/01/21 00:12:01;;;;;;;0.00;0.00;;;0.50;99.90;;;;;;5051351;28;19920;-71
2023/01/21 00:14:30;;;;;;;0.00;0.00;;;0.50;99.90;;;;;;5027738;28;20025;-71
2023/01/21 00:16:57;;;;;;;0.00;0.00;;;0.50;99.90;;;;;;5028146;28;20068;-71
2023/01/21 00:19:26;;;;;;;0.00;0.00;;;0.50;99.90;;;;;;5035286;28;20018;-72
2023/01/21 00:21:52;;;;;;;0.00;0.00;;;0.50;99.90;;;;;;5031137;28;20021;-72
2023/01/21 00:24:17;;;;;;;0.60;0.43;;;0.60;99.90;;;;;;5030309;28;20445;-71
2023/01/21 00:26:43;;;;;;;0.33;0.33;;;0.50;99.90;;;;;;5033213;28;20027;-72
2023/01/21 00:29:11;;;;;;;0.00;0.00;;;0.60;99.90;;;;;;5032586;28;20818;-72
2023/01/21 00:31:37;;;;;;;0.00;0.00;;;0.60;99.90;;;;;;5031079;28;20045;-71
2023/01/21 00:34:03;;;;;;;0.00;0.00;;;0.60;99.90;;;;;;5033134;28;20060;-71
2023/01/21 00:36:28;;;;;;;0.00;0.00;;;0.60;99.90;;;;;;5033822;28;20057;-71
2023/01/21 00:38:58;;;;;;;0.00;0.00;;;0.60;99.90;;;;;;5054179;28;20116;-71
2023/01/21 00:41:25;;;;;;;0.00;0.00;;;0.60;99.90;;;;;;5036427;28;20029;-71
2023/01/21 00:43:51;;;;;;;0.00;0.00;;;0.50;99.90;;;;;;5039315;28;20040;-71
2023/01/21 00:46:16;;;;;;;0.00;0.00;;;0.60;99.90;;;;;;5035243;28;20120;-70
2023/01/21 00:48:42;;;;;;;0.00;0.00;;;0.60;99.90;;;;;;5032299;28;20115;-71
2023/01/21 00:51:08;;;;;;;0.00;0.00;;;0.60;99.90;;;;;;5040126;28;20474;-71
2023/01/21 00:53:37;;;;;;;0.00;0.00;;;0.60;99.90;;;;;;5036043;28;20066;-71
2023/01/21 00:56:07;;;;;;;0.00;0.00;;;0.50;99.90;;;;;;5033166;28;20040;-71
2023/01/21 00:58:33;;;;;;;0.00;0.00;;;0.50;99.90;;;;;;5037990;28;20021;-72
2023/01/21 01:01:08;;;;;;;0.43;0.43;;;0.50;99.90;;;;;;5036238;28;20756;-71
2023/01/21 01:03:34;;;;;;;0.00;0.00;;;0.50;99.90;;;;;;5031804;28;20036;-71
2023/01/21 01:06:05;;;;;;;0.00;0.00;;;0.50;99.90;;;;;;5027745;28;20021;-71
2023/01/21 01:08:31;;;;;;;0.00;0.00;;;0.50;99.90;;;;;;5033499;28;20021;-71
2023/01/21 01:10:58;;;;;;;0.00;0.00;;;0.50;99.90;;;;;;5033974;28;20539;-70
2023/01/21 01:13:24;;;;;;;0.00;0.00;;;0.60;99.90;;;;;;5034723;28;20442;-71
2023/01/21 01:15:54;;;;;;;0.00;0.00;;;0.50;99.90;;;;;;5028498;28;20056;-71
2023/01/21 01:18:24;;;;;;;0.00;0.00;;;0.60;99.90;;;;;;5024069;28;20022;-71
2023/01/21 01:20:49;;;;;;;0.00;0.00;;;0.60;99.90;;;;;;5027380;28;20032;-71
2023/01/21 01:23:15;;;;;;;0.00;0.00;;;0.50;99.90;;;;;;5038777;28;20021;-70
2023/01/21 01:25:41;;;;;;;0.00;0.00;;;0.60;99.90;;;;;;5033967;28;20458;-71
2023/01/21 01:28:06;;;;;;;1.17;1.10;;;0.60;99.90;;;;;;5034254;28;20052;-71
2023/01/21 01:30:34;;;;;;;0.00;0.00;;;0.60;99.90;;;;;;5031226;28;20049;-71
2023/01/21 01:33:00;;;;;;;0.00;0.00;;;0.50;99.90;;;;;;5029409;28;20052;-71
2023/01/21 01:35:26;;;;;;;0.00;0.00;;;0.50;99.90;;;;;;5030795;28;20053;-71
2023/01/21 01:37:52;;;;;;;0.00;0.00;;;0.50;99.90;;;;;;5031219;28;20344;-71
2023/01/21 01:40:18;;;;;;;0.00;0.00;;;0.50;99.90;;;;;;5038943;28;20046;-71
2023/01/21 01:42:44;;;;;;;0.00;0.00;;;0.50;99.90;;;;;;5033395;28;20044;-71
2023/01/21 01:45:19;;;;;;;0.00;0.00;;;0.50;99.90;;;;;;5025201;28;20029;-71
2023/01/21 01:47:57;;;;;;;0.00;0.00;;;0.50;99.90;;;;;;5032105;28;20482;-71
2023/01/21 01:50:26;;;;;;;0.00;0.00;;;0.50;99.90;;;;;;5033651;28;20025;-71
2023/01/21 01:52:53;;;;;;;0.00;0.00;;;0.50;99.90;;;;;;5030400;28;20028;-71
2023/01/21 01:55:20;;;;;;;0.00;0.00;;;0.50;99.90;;;;;;5031319;28;20044;-72
2023/01/21 01:57:51;;;;;;;0.00;0.00;;;0.50;99.90;;;;;;5039481;28;20506;-71
2023/01/21 02:00:17;;;;;;;0.00;0.00;;;0.50;99.90;;;;;;5038838;28;20053;-71
2023/01/21 02:03:43;;;;;;;0.30;0.30;;;0.50;99.90;;;;;;5028027;28;20025;-71
2023/01/21 02:05:31;;;;;;;1.85;0.25;;;0.50;99.90;;;;;;5029594;28;20108;-71
2023/01/21 02:07:57;;;;;;;0.00;0.00;;;0.50;99.90;;;;;;5029345;28;20033;-71
2023/01/21 02:10:23;;;;;;;0.00;0.00;;;0.60;99.90;;;;;;5037613;28;20017;-71
2023/01/21 02:12:49;;;;;;;0.00;0.00;;;0.50;99.90;;;;;;5033451;28;20727;-71
2023/01/21 02:15:15;;;;;;;0.00;0.00;;;0.50;99.90;;;;;;5025175;28;20029;-70
2023/01/21 02:17:57;;;;;;;0.00;0.00;;;0.50;99.90;;;;;;5030491;28;20029;-71
2023/01/21 02:20:56;;;;;;;0.00;0.00;;;0.50;99.90;;;;;;5029885;28;20026;-71
2023/01/21 02:24:18;;;;;;;0.00;0.00;;;0.50;99.90;;;;;;5026681;28;20394;-71
2023/01/21 02:26:44;;;;;;;0.00;0.00;;;0.60;99.90;;;;;;4985140;28;20026;-71
2023/01/21 02:29:13;;;;;;;0.00;0.00;;;0.60;99.90;;;;;;4991674;28;22041;-71
2023/01/21 02:32:14;;;;;;;0.00;0.00;;;0.50;99.90;;;;;;5007159;28;20022;-70
2023/01/21 02:34:53;;;;;;;3.20;1.23;;;0.50;99.90;;;;;;5035898;28;20021;-70
2023/01/21 02:37:42;;;;;;;0.00;0.00;;;0.50;99.90;;;;;;5032162;28;20411;-70
2023/01/21 02:40:08;;;;;;;0.00;0.00;;;0.50;99.90;;;;;;5031795;28;20025;-71
2023/01/21 02:42:40;;;;;;;0.00;0.00;;;0.40;99.90;;;;;;5031569;28;20031;-72
2023/01/21 02:45:17;;;;;;;0.00;0.00;;;0.40;99.90;;;;;;5027370;28;20049;-71
2023/01/21 02:47:47;;;;;;;;;;;0.40;99.90;;;;;;5028531;28;20060;-71
2023/01/21 02:50:26;;;;;;;0.00;0.00;;;0.40;99.90;;;;;;5029361;28;19929;-71
2023/01/21 02:53:00;;;;;;;0.00;0.00;;;0.40;99.90;;;;;;5040037;28;20628;-71
2023/01/21 02:55:33;;;;;;;0.00;0.00;;;0.40;99.90;;;;;;5028420;28;20014;-71
2023/01/21 02:58:07;;;;;;;0.00;0.00;;;0.40;99.90;;;;;;5027620;28;20025;-71
2023/01/21 03:01:00;;;;;;;0.00;0.00;;;0.40;99.90;;;;;;5027243;28;20097;-71
2023/01/21 03:03:40;;;;;;;0.00;0.00;;;0.40;99.90;;;;;;5027212;28;20074;-71
2023/01/21 03:06:36;;;;;;;0.10;0.10;;;0.40;99.90;;;;;;5025026;28;20025;-71
2023/01/21 03:09:29;;;;;;;0.00;0.00;;;0.50;99.90;;;;;;5025521;28;20073;-70
2023/01/21 03:12:33;;;;;;;0.00;0.00;;;0.50;99.90;;;;;;5023587;28;20026;-71
2023/01/21 03:18:13;;;;;;;0.00;0.00;;;0.40;99.90;;;;;;5034682;28;20088;-71
2023/01/21 03:20:52;;;;;;;0.10;0.10;;;0.40;99.90;;;;;;5026450;28;20092;-71
2023/01/21 03:23:36;;;;;;;0.00;0.00;;;0.40;99.90;;;;;;5032158;28;20034;-71
2023/01/21 03:26:04;;;;;;;0.00;0.00;;;0.50;99.90;;;;;;5026391;28;20057;-71
2023/01/21 03:28:32;;;;;;;0.10;0.10;;;0.50;99.90;;;;;;5025501;28;20029;-72
2023/01/21 03:31:04;;;;;;;0.00;0.00;;;0.50;99.90;;;;;;5036397;28;20060;-71
2023/01/21 03:33:35;;;;;;;0.60;0.60;;;0.50;99.90;;;;;;5033272;28;20052;-70
2023/01/21 03:36:07;;;;;;;0.00;0.00;;;0.50;99.90;;;;;;5049529;28;20021;-71
2023/01/21 03:38:42;;;;;;;0.00;0.00;;;0.50;99.90;;;;;;5030513;28;20060;-71
2023/01/21 03:41:21;;;;;;;0.00;0.00;;;0.50;99.90;;;;;;5028318;28;20056;-71
2023/01/21 03:43:47;;;;;;;0.00;0.00;;;0.50;99.90;;;;;;5029180;28;20029;-71
2023/01/21 03:46:34;;;;;;;0.00;0.00;;;0.50;99.90;;;;;;5028937;28;20056;-71
2023/01/21 03:49:14;;;;;;;0.00;0.00;;;0.50;99.90;;;;;;5036661;28;20037;-71
2023/01/21 03:51:45;;;;;;;0.00;0.00;;;0.50;99.90;;;;;;5022559;28;20024;-70
2023/01/21 03:54:11;;;;;;;0.00;0.00;;;0.50;99.90;;;;;;5031876;28;20074;-71
2023/01/21 03:56:37;;;;;;;0.00;0.00;;;0.50;99.90;;;;;;5031184;28;20115;-71
2023/01/21 03:59:03;;;;;;;0.00;0.00;;;0.50;99.90;;;;;;5024257;28;20458;-71
2023/01/21 04:01:28;;;;;;;0.10;0.10;;;0.50;99.90;;;;;;5029816;28;20538;-71
2023/01/21 04:03:54;;;;;;;0.00;0.00;;;0.50;99.90;;;;;;5028163;28;20098;-71
2023/01/21 04:06:21;;;;;;;0.53;0.53;;;0.50;99.90;;;;;;5031715;28;20405;-71
2023/01/21 04:08:47;;;;;;;0.00;0.00;;;0.50;99.90;;;;;;5031396;28;20017;-71
2023/01/21 04:11:13;;;;;;;0.00;0.00;;;0.50;99.90;;;;;;5031406;28;20044;-71
2023/01/21 04:13:39;;;;;;;0.00;0.00;;;0.50;99.90;;;;;;5029508;28;20025;-71
2023/01/21 04:16:05;;;;;;;0.00;0.00;;;0.50;99.90;;;;;;5025742;28;20079;-70
2023/01/21 04:18:31;;;;;;;0.00;0.00;;;0.50;99.90;;;;;;5030297;28;20018;-71
2023/01/21 04:20:58;;;;;;;0.00;0.00;;;0.50;99.90;;;;;;5027419;28;20029;-71
2023/01/21 04:23:23;;;;;;;;;;;0.60;99.90;;;;;;5039075;28;20018;-71
2023/01/21 04:25:50;;;;;;;0.00;0.00;;;0.60;99.90;;;;;;5028328;28;19904;-71
2023/01/21 04:28:16;;;;;;;0.00;0.00;;;0.60;99.90;;;;;;5037308;28;20479;-70
2023/01/21 04:30:41;;;;;;;0.00;0.00;;;0.50;99.90;;;;;;5027184;28;20048;-70
2023/01/21 04:33:07;;;;;;;0.00;0.00;;;0.50;99.90;;;;;;5024567;28;20681;-71
2023/01/21 04:35:35;;;;;;;0.00;0.00;;;0.60;99.90;;;;;;5027542;28;20029;-71
2023/01/21 04:38:02;;;;;;;0.00;0.00;;;0.60;99.90;;;;;;5028168;28;20034;-71
2023/01/21 04:40:27;;;;;;;0.00;0.00;;;0.60;99.90;;;;;;5027760;28;20064;-71
2023/01/21 04:42:53;;;;;;;0.00;0.00;;;0.60;99.90;;;;;;5027651;28;20080;-71
2023/01/21 04:45:18;;;;;;;0.10;0.10;;;0.60;99.90;;;;;;5029116;28;20032;-71
2023/01/21 04:47:45;;;;;;;0.20;0.20;;;0.60;99.90;;;;;;5023169;28;20025;-71
2023/01/21 04:50:12;;;;;;;0.00;0.00;;;0.60;99.90;;;;;;5023273;28;20465;-71
2023/01/21 04:52:38;;;;;;;;;;;0.60;99.90;;;;;;5031446;28;20457;-70
2023/01/21 04:55:04;;;;;;;0.00;0.00;;;0.60;99.90;;;;;;5044011;28;19909;-71
2023/01/21 04:57:29;;;;;;;0.00;0.00;;;0.60;99.90;;;;;;5034844;28;20034;-71
2023/01/21 04:59:55;;;;;;;0.00;0.00;;;0.60;99.90;;;;;;5032477;28;20076;-71
2023/01/21 05:02:21;;;;;;;0.00;0.00;;;0.50;99.90;;;;;;5031166;28;20021;-71
2023/01/21 05:04:46;;;;;;;0.00;0.00;;;0.50;99.90;;;;;;5024259;28;20798;-71
2023/01/21 05:07:13;;;;;;;0.00;0.00;;;0.50;99.90;;;;;;5033938;28;20040;-71
2023/01/21 05:09:40;;;;;;;0.20;0.20;;;0.50;99.90;;;;;;5034972;28;20068;-71
2023/01/21 05:12:06;;;;;;;0.00;0.00;;;0.50;99.90;;;;;;5034034;28;20496;-71
2023/01/21 05:14:32;;;;;;;0.00;0.00;;;0.50;99.90;;;;;;5033023;28;20021;-71
2023/01/21 05:16:58;;;;;;;0.00;0.00;;;0.50;99.90;;;;;;5034098;28;20047;-71
2023/01/21 05:19:23;;;;;;;0.03;0.03;;;0.50;99.90;;;;;;5033234;28;20029;-70
2023/01/21 05:21:49;;;;;;;0.00;0.00;;;0.50;99.90;;;;;;5031107;28;20618;-71
2023/01/21 05:24:15;;;;;;;0.00;0.00;;;0.50;99.90;;;;;;5026454;28;20040;-71
2023/01/21 05:26:41;;;;;;;0.00;0.00;;;0.50;99.90;;;;;;5033697;28;20028;-71
2023/01/21 05:29:06;;;;;;;0.00;0.00;;;0.50;99.90;;;;;;5038223;28;20024;-71
2023/01/21 05:31:32;;;;;;;0.00;0.00;;;0.50;99.90;;;;;;5032115;28;20028;-71
2023/01/21 05:33:57;;;;;;;0.00;0.00;;;0.50;99.90;;;;;;5028749;28;20032;-71
2023/01/21 05:36:23;;;;;;;0.00;0.00;;;0.50;99.90;;;;;;5031405;28;20085;-70
2023/01/21 05:38:49;;;;;;;0.00;0.00;;;0.60;99.90;;;;;;5039077;28;20027;-71
2023/01/21 05:41:15;;;;;;;0.00;0.00;;;0.50;99.90;;;;;;5029096;28;20029;-71
2023/01/21 05:43:40;;;;;;;0.00;0.00;;;0.50;99.90;;;;;;5040823;28;20048;-71
2023/01/21 05:46:06;;;;;;;0.00;0.00;;;0.50;99.90;;;;;;5029107;28;20033;-71
2023/01/21 05:48:31;;;;;;;0.00;0.00;;;0.50;99.90;;;;;;5040441;28;20083;-71
2023/01/21 05:50:58;;;;;;;0.00;0.00;;;0.50;99.90;;;;;;5027950;28;20107;-70
2023/01/21 05:53:24;;;;;;;0.00;0.00;;;0.50;99.90;;;;;;5030344;28;20017;-71
2023/01/21 05:55:54;;;;;;;0.00;0.00;;;0.50;99.90;;;;;;5030718;28;20029;-71
2023/01/21 05:58:20;;;;;;;0.00;0.00;;;0.50;99.90;;;;;;5034120;28;20082;-71
2023/01/21 06:00:47;;;;;;;;;;;0.50;99.90;;;;;;5025866;28;20475;-71
2023/01/21 06:03:14;;;;;;;0.00;0.00;;;0.50;99.90;;;;;;5035802;28;19904;-71
2023/01/21 06:05:40;;;;;;;0.00;0.00;;;0.50;99.90;;;;;;5029305;28;20083;-71
2023/01/21 06:08:06;;;;;;;0.00;0.00;;;0.50;99.90;;;;;;5028544;28;20031;-71
2023/01/21 06:10:33;;;;;;;0.00;0.00;;;0.50;99.90;;;;;;5031129;28;20025;-70
2023/01/21 06:12:58;;;;;;;0.00;0.00;;;0.50;99.90;;;;;;5035181;28;20100;-71
2023/01/21 06:15:24;;;;;;;0.00;0.00;;;0.50;99.90;;;;;;5028133;28;20104;-71
2023/01/21 06:17:51;;;;;;;0.00;0.00;;;0.50;99.90;;;;;;5032181;28;20027;-71
2023/01/21 06:20:17;;;;;;;0.00;0.00;;;0.60;99.90;;;;;;5022998;28;20037;-71
2023/01/21 06:22:43;;;;;;;0.00;0.00;;;0.50;99.90;;;;;;5029561;28;20060;-71
2023/01/21 06:25:09;;;;;;;0.00;0.00;;;0.50;99.90;;;;;;5029541;28;20137;-71
2023/01/21 06:27:37;;;;;;;0.00;0.00;;;0.50;99.90;;;;;;5030003;28;20029;-71
2023/01/21 06:30:08;;;;;;;0.00;0.00;;;0.50;99.90;;;;;;5037611;28;20029;-71
2023/01/21 06:32:34;;;;;;;0.00;0.00;;;0.50;99.90;;;;;;5026458;28;20528;-70
2023/01/21 06:35:00;;;;;;;0.00;0.00;;;0.50;99.90;;;;;;5032464;28;20021;-71
2023/01/21 06:37:26;;;;;;;0.00;0.00;;;0.50;99.90;;;;;;5027564;28;20038;-71
2023/01/21 06:39:52;;;;;;;0.00;0.00;;;0.60;99.90;;;;;;5024000;28;20030;-71
2023/01/21 06:42:17;;;;;;;0.00;0.00;;;0.60;99.90;;;;;;5033983;28;20037;-71
2023/01/21 06:44:44;;;;;;;0.00;0.00;;;0.60;99.90;;;;;;5024266;28;20041;-71
2023/01/21 06:47:10;;;;;;;0.00;0.00;;;0.60;99.90;;;;;;5032119;28;21522;-71
2023/01/21 06:49:35;;;;;;;0.00;0.00;;;0.60;99.90;;;;;;5032788;28;20044;-71
2023/01/21 06:52:01;;;;;;;0.00;0.00;;;0.60;99.90;;;;;;5028141;28;20021;-72
2023/01/21 06:54:27;;;;;;;0.00;0.00;;;0.60;99.90;;;;;;5032486;28;20100;-71
2023/01/21 06:56:52;;;;;;;0.00;0.00;;;0.60;99.90;;;;;;5031887;28;20026;-71
2023/01/21 06:59:18;;;;;;;0.00;0.00;;;0.60;99.90;;;;;;5033588;28;20597;-71
2023/01/21 07:01:44;;;;;;;0.00;0.00;;;0.70;99.90;;;;;;5028010;28;20024;-72
2023/01/21 07:04:09;;;;;;;0.00;0.00;;;0.70;99.90;;;;;;5044731;28;20030;-71
2023/01/21 07:06:36;;;;;;;0.00;0.00;;;0.70;99.90;;;;;;5030682;28;20052;-70
2023/01/21 07:09:02;;;;;;;0.00;0.00;;;0.70;99.90;;;;;;5035666;28;20054;-71
2023/01/21 07:11:28;;;;;;;0.00;0.00;;;0.70;99.90;;;;;;5028036;28;20380;-72
2023/01/21 07:13:54;;;;;;;0.00;0.00;;;0.70;99.90;;;;;;5035594;28;20083;-71
2023/01/21 07:16:20;;;;;;;0.00;0.00;;;0.70;99.90;;;;;;5031572;28;20513;-71
2023/01/21 07:18:45;;;;;;;0.20;0.20;;;0.70;99.90;;;;;;5023780;28;20021;-71
2023/01/21 07:21:11;;;;;;;0.00;0.00;;;0.80;99.90;;;;;;5030875;28;20028;-71
2023/01/21 07:23:37;;;;;;;0.00;0.00;;;0.80;99.90;;;;;;5030387;28;20052;-72
2023/01/21 07:26:04;;;;;;;0.00;0.00;;;0.90;99.90;;;;;;5030336;28;20120;-72
2023/01/21 07:28:30;;;;;;;0.00;0.00;;;0.90;99.90;;;;;;5028651;28;20041;-72
2023/01/21 07:31:01;;;;;;;0.00;0.00;;;1.00;99.90;;;;;;5031787;28;20025;-72
2023/01/21 07:33:27;;;;;;;0.00;0.00;;;1.00;99.90;;;;;;5027685;28;20028;-72
2023/01/21 07:35:54;;;;;;;0.00;0.00;;;1.10;99.90;;;;;;5027809;28;20562;-72
2023/01/21 07:38:20;;;;;;;0.00;0.00;;;1.20;99.90;;;;;;5040277;28;20497;-71
2023/01/21 07:40:49;;;;;;;0.00;0.00;;;1.30;99.90;;;;;;5022153;28;20035;-72
2023/01/21 07:43:15;;;;;;;0.00;0.00;;;1.30;99.90;;;;;;5024118;28;20502;-71
2023/01/21 07:45:40;;;;;;;0.00;0.00;;;1.50;99.90;;;;;;5027481;28;20037;-72
2023/01/21 07:48:06;;;;;;;0.00;0.00;;;1.60;99.90;;;;;;5028172;28;20064;-72
2023/01/21 07:50:33;;;;;;;0.00;0.00;;;1.70;99.90;;;;;;5027911;28;20017;-72
2023/01/21 07:52:58;;;;;;;;;;;1.70;99.90;;;;;;5027350;28;20056;-71
2023/01/21 07:55:25;;;;;;;0.00;0.00;;;1.70;99.90;;;;;;5028563;28;19991;-72
2023/01/21 07:57:50;;;;;;;0.00;0.00;;;1.70;99.90;;;;;;5031906;28;20032;-71
2023/01/21 08:00:17;;;;;;;0.00;0.00;;;1.70;99.90;;;;;;5029101;28;20108;-72
2023/01/21 08:02:43;;;;;;;0.00;0.00;;;1.70;99.90;;;;;;5029288;28;20033;-72
2023/01/21 08:05:09;;;;;;;0.00;0.00;;;1.80;99.90;;;;;;5037357;28;20037;-72
2023/01/21 08:07:35;;;;;;;0.00;0.00;;;1.90;99.90;;;;;;5029054;28;20109;-72
2023/01/21 08:10:01;;;;;;;0.00;0.00;;;2.00;99.90;;;;;;5051935;28;20467;-73
2023/01/21 08:12:26;;;;;;;0.00;0.00;;;2.00;99.90;;;;;;5032080;28;20067;-72
2023/01/21 08:14:52;;;;;;;0.00;0.00;;;2.10;99.90;;;;;;5028235;28;20017;-72
2023/01/21 08:17:18;;;;;;;0.00;0.00;;;2.10;99.90;;;;;;5029207;28;20508;-72
2023/01/21 08:19:44;;;;;;;0.00;0.00;;;2.10;99.90;;;;;;5024870;28;20013;-72
2023/01/21 08:22:10;;;;;;;0.00;0.00;;;2.30;99.90;;;;;;5024279;28;20037;-72
2023/01/21 08:24:37;;;;;;;0.00;0.00;;;2.30;99.90;;;;;;5028900;28;20044;-72
2023/01/21 08:27:02;;;;;;;0.00;0.00;;;2.40;99.90;;;;;;5030144;28;20105;-72
2023/01/21 08:29:28;;;;;;;0.00;0.00;;;2.50;99.90;;;;;;5024288;28;20242;-72
2023/01/21 08:31:54;;;;;;;0.00;0.00;;;2.50;99.90;;;;;;5022643;28;20029;-72
2023/01/21 08:34:19;;;;;;;0.00;0.00;;;2.40;99.90;;;;;;5036291;28;20639;-72
2023/01/21 08:36:45;;;;;;;0.00;0.00;;;2.40;99.90;;;;;;5035242;28;20571;-72
2023/01/21 08:39:17;;;;;;;0.00;0.00;;;2.20;99.90;;;;;;5035692;28;20068;-72
2023/01/21 08:41:43;;;;;;;0.00;0.00;;;2.30;99.90;;;;;;5032603;28;20110;-72
2023/01/21 08:44:09;;;;;;;0.00;0.00;;;2.30;99.90;;;;;;5032706;28;20041;-71
2023/01/21 08:46:36;;;;;;;0.00;0.00;;;2.20;99.90;;;;;;5031301;28;20063;-71
2023/01/21 08:49:01;;;;;;;0.00;0.00;;;2.00;99.90;;;;;;5043911;28;20351;-72
2023/01/21 08:51:27;;;;;;;0.00;0.00;;;2.00;99.90;;;;;;5033150;28;20116;-71
2023/01/21 08:53:53;;;;;;;0.00;0.00;;;2.00;99.90;;;;;;5031449;28;20108;-72
2023/01/21 08:56:19;;;;;;;0.00;0.00;;;1.80;99.90;;;;;;5033486;28;20026;-71
2023/01/21 08:58:44;;;;;;;0.00;0.00;;;1.90;99.90;;;;;;5054659;28;20032;-71
2023/01/21 09:01:14;;;;;;;0.00;0.00;;;1.80;99.90;;;;;;5032570;28;20052;-71
2023/01/21 09:03:39;;;;;;;0.00;0.00;;;1.80;99.90;;;;;;5031111;28;20025;-71
2023/01/21 09:06:07;;;;;;;0.00;0.00;;;1.70;99.90;;;;;;5029846;28;20036;-71
2023/01/21 09:08:32;;;;;;;0.00;0.00;;;1.60;99.90;;;;;;5034099;28;20631;-71
2023/01/21 09:11:00;;;;;;;0.00;0.00;;;1.60;99.90;;;;;;5032503;28;20090;-71
2023/01/21 09:13:26;;;;;;;0.00;0.00;;;1.50;99.90;;;;;;5026644;28;20025;-71
2023/01/21 09:15:52;;;;;;;0.00;0.00;;;1.60;99.90;;;;;;5026562;28;20041;-71
2023/01/21 09:18:17;;;;;;;0.00;0.00;;;1.60;99.90;;;;;;5036549;28;20060;-71
2023/01/21 09:20:43;;;;;;;0.00;0.00;;;1.60;99.90;;;;;;5032218;28;21016;-71
2023/01/21 09:23:24;;;;;;;0.00;0.00;;;1.60;99.90;;;;;;5031214;28;20545;-71
2023/01/21 09:25:52;;;;;;;0.00;0.00;;;1.60;99.90;;;;;;5034887;28;20108;-71
2023/01/21 09:28:18;;;;;;;0.00;0.00;;;1.60;99.90;;;;;;5034456;28;20021;-71
2023/01/21 09:30:44;;;;;;;0.00;0.00;;;1.60;99.90;;;;;;5040289;28;20126;-72
2023/01/21 09:33:11;;;;;;;0.00;0.00;;;1.50;99.90;;;;;;5026788;28;20026;-71
2023/01/21 09:35:37;;;;;;;0.00;0.00;;;1.30;99.90;;;;;;5032888;28;20811;-71
2023/01/21 09:38:02;;;;;;;0.00;0.00;;;1.30;99.90;;;;;;5032216;28;20033;-71
2023/01/21 09:40:28;;;;;;;0.00;0.00;;;1.40;99.90;;;;;;5031353;28;20031;-71
2023/01/21 09:42:54;;;;;;;0.00;0.00;;;1.30;99.90;;;;;;5036550;28;20602;-71
2023/01/21 09:45:20;;;;;;;0.00;0.00;;;1.40;99.90;;;;;;5028254;28;20029;-73
2023/01/21 09:47:50;;;;;;;0.00;0.00;;;1.40;99.90;;;;;;5034438;28;20025;-71
2023/01/21 09:50:21;;;;;;;0.00;0.00;;;1.50;99.90;;;;;;5038604;28;20107;-71
2023/01/21 09:52:53;;;;;;;0.00;0.00;;;1.60;99.90;;;;;;5037361;28;20817;-71
2023/01/21 09:55:24;;;;;;;0.00;0.00;;;1.70;99.90;;;;;;5031327;28;20081;-71
2023/01/21 09:58:08;;;;;;;0.00;0.00;;;1.90;99.90;;;;;;5023059;28;20033;-71
2023/01/21 10:00:33;;;;;;;0.00;0.00;;;1.90;99.90;;;;;;5031480;28;20036;-71
2023/01/21 10:03:36;;;;;;;0.00;0.00;;;2.10;99.90;;;;;;5034264;28;20033;-72
2023/01/21 10:06:24;;;;;;;0.00;0.00;;;2.10;99.90;;;;;;5022385;28;20045;-71
2023/01/21 10:09:15;;;;;;;0.00;0.00;;;2.20;99.90;;;;;;5029724;28;20036;-71
2023/01/21 10:12:14;;;;;;;0.00;0.00;;;2.50;99.90;;;;;;5018917;28;20206;-71
2023/01/21 10:14:55;;;;;;;0.00;0.00;;;2.70;99.90;;;;;;5032485;28;20026;-70
2023/01/21 10:17:42;;;;;;;0.00;0.00;;;2.90;99.90;;;;;;5025190;28;20018;-71
2023/01/21 10:20:42;;;;;;;0.00;0.00;;;3.30;99.90;;;;;;5028762;28;20032;-70
2023/01/21 10:23:32;;;;;;;0.00;0.00;;;3.60;99.90;;;;;;5034695;28;20651;-70
2023/01/21 10:26:04;;;;;;;0.00;0.00;;;4.00;99.90;;;;;;5031541;28;20074;-70
2023/01/21 10:28:30;;;;;;;0.00;0.00;;;4.10;99.90;;;;;;5046174;28;20597;-70
2023/01/21 10:31:05;;;;;;;0.00;0.00;;;4.10;99.90;;;;;;5031536;28;20474;-71
2023/01/21 10:33:32;;;;;;;0.00;0.00;;;3.70;99.90;;;;;;5032546;28;20036;-71
2023/01/21 10:35:57;;;;;;;0.00;0.00;;;3.30;99.90;;;;;;5025836;28;20037;-71
2023/01/21 10:38:57;;;;;;;0.00;0.00;;;3.20;99.90;;;;;;5028664;28;20021;-71
2023/01/21 10:41:54;;;;;;;0.00;0.00;;;3.20;99.90;;;;;;5032063;28;20070;-71
2023/01/21 10:44:23;;;;;;;0.00;0.00;;;3.00;99.90;;;;;;5028380;28;20482;-71
2023/01/21 10:47:12;;;;;;;0.00;0.00;;;3.30;99.90;;;;;;5029161;28;20025;-71
2023/01/21 10:49:47;;;;;;;0.00;0.00;;;3.20;99.90;;;;;;5026893;28;20025;-72
2023/01/21 10:52:23;;;;;;;0.00;0.00;;;3.30;99.90;;;;;;5031460;28;20055;-70
2023/01/21 10:55:00;;;;;;;0.00;0.00;;;3.30;99.90;;;;;;5029221;28;20022;-72
2023/01/21 10:57:40;;;;;;;0.00;0.00;;;3.40;99.90;;;;;;5039606;28;20471;-71
2023/01/21 11:00:19;;;;;;;0.00;0.00;;;3.50;99.90;;;;;;5025027;28;20026;-71
2023/01/21 11:02:50;;;;;;;0.00;0.00;;;3.40;99.90;;;;;;5033944;28;20029;-71
2023/01/21 11:05:18;;;;;;;0.00;0.00;;;3.30;99.90;;;;;;5032817;28;20026;-71
2023/01/21 11:07:47;;;;;;;0.00;0.00;;;3.10;99.90;;;;;;5030949;28;20033;-70
2023/01/21 11:10:19;;;;;;;0.00;0.00;;;3.00;99.90;;;;;;5027421;28;20550;-71
2023/01/21 11:12:46;;;;;;;0.00;0.00;;;2.80;99.90;;;;;;5030905;28;20022;-71
2023/01/21 11:15:15;;;;;;;0.00;0.00;;;2.70;99.90;;;;;;5029390;28;20022;-70
2023/01/21 11:17:45;;;;;;;0.00;0.00;;;2.50;99.90;;;;;;5031213;28;20040;-71
2023/01/21 11:20:33;;;;;;;0.00;0.00;;;2.40;99.90;;;;;;5030116;28;20035;-71
2023/01/21 11:23:03;;;;;;;0.00;0.00;;;2.20;99.90;;;;;;5027600;28;20033;-71
2023/01/21 11:25:34;;;;;;;0.00;0.00;;;2.20;99.90;;;;;;5024852;28;20168;-70
2023/01/21 11:28:01;;;;;;;0.00;0.00;;;2.10;99.90;;;;;;5027608;28;20033;-71
2023/01/21 11:30:37;;;;;;;0.00;0.00;;;2.10;99.90;;;;;;5030784;28;20022;-72
2023/01/21 11:33:39;;;;;;;0.00;0.00;;;2.10;99.90;;;;;;5026310;28;20497;-71
2023/01/21 11:36:12;;;;;;;0.00;0.00;;;2.00;99.90;;;;;;5020480;28;20041;-72
2023/01/21 11:38:38;;;;;;;0.00;0.00;;;2.00;99.90;;;;;;5032660;28;20027;-72
2023/01/21 11:41:16;;;;;;;0.00;0.00;;;1.90;99.90;;;;;;5024216;28;20025;-72
2023/01/21 11:43:57;;;;;;;0.00;0.00;;;1.90;99.90;;;;;;5028260;28;20036;-71
2023/01/21 11:46:37;;;;;;;0.00;0.00;;;1.80;99.90;;;;;;5027593;28;20020;-72
2023/01/21 11:49:06;;;;;;;0.00;0.00;;;1.80;99.90;;;;;;5027419;28;20025;-72
2023/01/21 11:51:37;;;;;;;0.00;0.00;;;1.90;99.90;;;;;;5027891;28;20104;-72
2023/01/21 11:54:12;;;;;;;0.00;0.00;;;2.00;99.90;;;;;;5031819;28;20120;-72
2023/01/21 11:56:39;;;;;;;0.00;0.00;;;2.00;99.90;;;;;;5027747;28;20613;-71
2023/01/21 11:59:27;;;;;;;0.00;0.00;;;2.00;99.90;;;;;;5028497;28;20089;-72
2023/01/21 12:01:58;;;;;;;;;;;2.00;99.90;;;;;;5028582;28;20036;-72
2023/01/21 12:04:25;;;;;;;0.00;0.00;;;2.00;99.90;;;;;;5027489;28;19909;-72
2023/01/21 12:06:56;;;;;;;;;;;2.00;99.90;;;;;;5031320;28;20027;-71
2023/01/21 12:09:22;;;;;;;0.00;0.00;;;2.00;99.90;;;;;;5031587;28;19955;-71
2023/01/21 12:12:08;;;;;;;0.00;0.00;;;2.00;99.90;;;;;;5039004;28;20036;-71
2023/01/21 12:14:56;;;;;;;0.00;0.00;;;1.90;99.90;;;;;;5023660;28;20096;-71
2023/01/21 12:17:45;;;;;;;0.00;0.00;;;1.90;99.90;;;;;;5028948;28;20031;-71
2023/01/21 12:20:22;;;;;;;0.00;0.00;;;2.00;99.90;;;;;;5033985;28;20045;-71
2023/01/21 12:23:15;;;;;;;0.00;0.00;;;1.90;99.90;;;;;;5026119;28;20026;-71
2023/01/21 12:26:12;;;;;;;0.00;0.00;;;1.90;99.90;;;;;;5036035;28;20040;-72
2023/01/21 12:29:06;;;;;;;0.00;0.00;;;1.90;99.90;;;;;;5033194;28;20021;-71
2023/01/21 12:31:42;;;;;;;0.00;0.00;;;1.80;99.90;;;;;;5009808;28;20029;-71
2023/01/21 12:34:22;;;;;;;0.00;0.00;;;1.90;99.90;;;;;;5036355;28;20045;-71
2023/01/21 12:37:04;;;;;;;0.00;0.00;;;2.00;99.90;;;;;;5047620;28;20419;-72
2023/01/21 12:39:35;;;;;;;0.00;0.00;;;2.00;99.90;;;;;;5027517;28;20025;-71
2023/01/21 12:42:17;;;;;;;0.00;0.00;;;2.00;99.90;;;;;;5033554;28;20070;-72
2023/01/21 12:44:47;;;;;;;0.00;0.00;;;2.10;99.90;;;;;;5030550;28;20037;-71
2023/01/21 12:47:40;;;;;;;0.00;0.00;;;2.10;99.90;;;;;;5029058;28;20025;-72
2023/01/21 12:50:30;;;;;;;0.00;0.00;;;2.20;99.90;;;;;;5025383;28;20029;-72
2023/01/21 12:53:08;;;;;;;0.00;0.00;;;2.20;99.90;;;;;;5026128;28;20449;-72
2023/01/21 12:55:54;;;;;;;0.00;0.00;;;2.10;99.90;;;;;;5031852;28;20026;-71
2023/01/21 12:58:23;;;;;;;0.00;0.00;;;2.10;99.90;;;;;;5044197;28;20104;-71
2023/01/21 13:00:52;;;;;;;0.00;0.00;;;2.00;99.90;;;;;;5027914;28;20069;-71
2023/01/21 13:03:51;;;;;;;0.00;0.00;;;2.00;99.90;;;;;;5047339;28;20029;-72
2023/01/21 13:06:45;;;;;;;0.00;0.00;;;2.00;99.90;;;;;;5024664;28;20025;-72
2023/01/21 13:09:47;;;;;;;0.00;0.00;;;2.00;99.90;;;;;;5022853;28;20030;-72
2023/01/21 13:12:23;;;;;;;0.00;0.00;;;2.00;99.90;;;;;;5027538;28;20030;-72
2023/01/21 13:15:19;;;;;;;0.00;0.00;;;2.00;99.90;;;;;;5042940;28;20768;-72
2023/01/21 13:17:54;;;;;;;0.00;0.00;;;2.00;99.90;;;;;;5029107;28;20728;-72
2023/01/21 13:20:21;;;;;;;0.00;0.00;;;2.00;99.90;;;;;;5031397;28;20408;-72
2023/01/21 13:22:47;;;;;;;0.00;0.00;;;2.10;99.90;;;;;;5026687;28;20025;-72
2023/01/21 13:25:30;;;;;;;0.03;0.03;;;2.10;99.90;;;;;;5027323;28;20049;-72